createdAt,value
2023-05-24T00:01:49.898Z,97463.41
2023-05-24T00:03:52.632Z,97457.31
2023-05-24T00:05:55.894Z,97460.88
2023-05-24T00:07:59.180Z,97461.41
2023-05-24T00:10:01.757Z,97456.09
2023-05-24T00:12:05.038Z,97455.13
2023-05-24T00:14:09.061Z,97456.00
2023-05-24T00:16:11.734Z,97453.34
2023-05-24T00:18:14.341Z,97458.72
2023-05-24T00:20:17.281Z,97451.84
2023-05-24T00:22:21.122Z,97449.22
2023-05-24T00:24:23.759Z,97451.94
2023-05-24T00:26:26.745Z,97447.59
2023-05-24T00:28:29.391Z,97448.53
2023-05-24T00:30:33.371Z,97455.56
2023-05-24T00:32:36.024Z,97445.06
2023-05-24T00:34:38.668Z,97440.72
2023-05-24T00:36:41.290Z,97449.56
2023-05-24T00:38:43.979Z,97447.88
2023-05-24T00:40:46.705Z,97446.09
2023-05-24T00:42:49.310Z,97447.88
2023-05-24T00:44:52.067Z,97441.75
2023-05-24T00:46:56.311Z,97436.50
2023-05-24T00:48:59.314Z,97430.41
2023-05-24T00:51:02.161Z,97434.81
2023-05-24T00:53:05.621Z,97435.75
2023-05-24T00:55:09.697Z,97430.56
2023-05-24T00:57:14.008Z,97427.09
2023-05-24T00:59:16.887Z,97424.63
2023-05-24T01:01:19.575Z,97421.16
2023-05-24T01:03:23.987Z,97419.47
2023-05-24T01:05:26.882Z,97421.25
2023-05-24T01:07:39.029Z,97415.34
2023-05-24T01:09:54.425Z,97424.25
2023-05-24T01:12:12.403Z,97424.25
2023-05-24T01:14:23.659Z,97427.81
2023-05-24T01:16:33.841Z,97441.06
2023-05-24T01:18:42.322Z,97433.19
2023-05-24T01:20:46.612Z,97434.19
2023-05-24T01:23:26.793Z,97435.19
2023-05-24T01:25:51.915Z,97436.25
2023-05-24T01:27:56.589Z,97431.16
2023-05-24T01:30:00.265Z,97435.47
2023-05-24T01:32:03.361Z,97434.72
2023-05-24T01:34:06.083Z,97439.97
2023-05-24T01:36:08.948Z,97433.94
2023-05-24T01:38:12.199Z,97434.56
2023-05-24T01:40:15.119Z,97435.38
2023-05-24T01:42:25.971Z,97439.06
2023-05-24T01:44:37.050Z,97442.09
2023-05-24T01:46:40.228Z,97440.44
2023-05-24T01:48:56.002Z,97429.81
2023-05-24T01:51:00.434Z,97428.03
2023-05-24T01:53:06.222Z,97437.63
2023-05-24T01:55:10.627Z,97432.25
2023-05-24T01:57:13.904Z,97440.16
2023-05-24T01:59:17.060Z,97441.00
2023-05-24T02:01:21.414Z,97431.34
2023-05-24T02:03:24.090Z,97436.50
2023-05-24T02:05:26.732Z,97430.41
2023-05-24T02:07:29.375Z,97441.78
2023-05-24T02:09:32.024Z,97432.94
2023-05-24T02:11:34.859Z,97422.41
2023-05-24T02:13:37.420Z,97424.97
2023-05-24T02:15:41.850Z,97421.56
2023-05-24T02:17:46.032Z,97424.28
2023-05-24T02:19:48.731Z,97423.47
2023-05-24T02:21:51.412Z,97425.22
2023-05-24T02:23:54.012Z,97434.13
2023-05-24T02:25:56.992Z,97431.59
2023-05-24T02:28:00.485Z,97435.16
2023-05-24T02:30:03.104Z,97422.94
2023-05-24T02:32:06.304Z,97434.41
2023-05-24T02:34:10.227Z,97431.78
2023-05-24T02:36:12.853Z,97426.59
2023-05-24T02:38:15.428Z,97429.31
2023-05-24T02:40:18.285Z,97425.94
2023-05-24T02:42:20.966Z,97428.56
2023-05-24T02:44:23.675Z,97431.28
2023-05-24T02:46:26.375Z,97434.81
2023-05-24T02:48:28.968Z,97434.00
2023-05-24T02:50:33.142Z,97431.53
2023-05-24T02:52:36.271Z,97432.47
2023-05-24T02:54:39.467Z,97433.56
2023-05-24T02:56:42.067Z,97425.75
2023-05-24T02:58:45.038Z,97430.16
2023-05-24T03:00:47.964Z,97431.13
2023-05-24T03:02:52.509Z,97430.44
2023-05-24T03:04:55.404Z,97423.50
2023-05-24T03:06:59.396Z,97427.91
2023-05-24T03:09:02.261Z,97427.97
2023-05-24T03:11:04.993Z,97426.28
2023-05-24T03:13:07.557Z,97429.00
2023-05-24T03:15:11.476Z,97433.41
2023-05-24T03:17:14.083Z,97431.69
2023-05-24T03:19:17.952Z,97434.91
2023-05-24T03:21:21.025Z,97438.50
2023-05-24T03:23:25.092Z,97438.50
2023-05-24T03:25:27.907Z,97443.75
2023-05-24T03:27:30.478Z,97442.03
2023-05-24T03:29:33.053Z,97440.34
2023-05-24T03:31:36.035Z,97432.66
2023-05-24T03:33:38.647Z,97437.13
2023-05-24T03:35:41.275Z,97446.00
2023-05-24T03:37:43.881Z,97434.59
2023-05-24T03:39:47.890Z,97439.06
2023-05-24T03:41:50.522Z,97440.84
2023-05-24T03:43:53.611Z,97440.94
2023-05-24T03:45:56.334Z,97437.53
2023-05-24T03:47:59.494Z,97440.25
2023-05-24T03:50:02.129Z,97447.28
2023-05-24T03:52:04.949Z,97453.38
2023-05-24T03:54:07.552Z,97453.03
2023-05-24T03:56:11.592Z,97448.56
2023-05-24T03:58:14.168Z,97449.56
2023-05-24T04:00:17.107Z,97451.31
2023-05-24T04:02:19.705Z,97455.66
2023-05-24T04:04:22.359Z,97452.19
2023-05-24T04:06:29.125Z,97454.81
2023-05-24T04:08:31.933Z,97460.63
2023-05-24T04:10:34.562Z,97452.84
2023-05-24T04:12:39.670Z,97453.78
2023-05-24T04:14:42.295Z,97455.53
2023-05-24T04:16:45.137Z,97451.91
2023-05-24T04:18:47.925Z,97458.09
2023-05-24T04:20:50.994Z,97456.41
2023-05-24T04:22:53.778Z,97451.91
2023-05-24T04:24:56.467Z,97455.38
2023-05-24T04:26:59.283Z,97453.69
2023-05-24T04:29:03.621Z,97454.47
2023-05-24T04:31:07.211Z,97450.97
2023-05-24T04:33:09.873Z,97457.09
2023-05-24T04:35:13.240Z,97453.53
2023-05-24T04:37:17.131Z,97458.59
2023-05-24T04:39:19.960Z,97452.66
2023-05-24T04:41:24.359Z,97449.97
2023-05-24T04:43:27.392Z,97451.66
2023-05-24T04:45:33.011Z,97445.97
2023-05-24T04:47:35.647Z,97451.16
2023-05-24T04:49:38.749Z,97446.81
2023-05-24T04:51:41.400Z,97444.19
2023-05-24T04:53:44.032Z,97440.72
2023-05-24T04:55:46.732Z,97445.03
2023-05-24T04:57:49.423Z,97449.34
2023-05-24T04:59:51.991Z,97441.47
2023-05-24T05:01:56.112Z,97438.94
2023-05-24T05:03:59.170Z,97437.16
2023-05-24T05:06:01.944Z,97444.09
2023-05-24T05:08:04.771Z,97444.09
2023-05-24T05:10:08.834Z,97443.19
2023-05-24T05:12:11.434Z,97447.59
2023-05-24T05:14:14.081Z,97446.63
2023-05-24T05:16:16.794Z,97450.13
2023-05-24T05:18:20.820Z,97454.53
2023-05-24T05:20:23.989Z,97463.25
2023-05-24T05:22:26.680Z,97453.59
2023-05-24T05:24:29.281Z,97462.34
2023-05-24T05:26:32.230Z,97467.50
2023-05-24T05:28:34.836Z,97468.41
2023-05-24T05:30:37.536Z,97474.53
2023-05-24T05:32:40.657Z,97464.88
2023-05-24T05:34:44.876Z,97460.97
2023-05-24T05:36:47.528Z,97463.59
2023-05-24T05:38:50.163Z,97464.41
2023-05-24T05:40:52.839Z,97467.91
2023-05-24T05:42:55.537Z,97469.59
2023-05-24T05:44:58.361Z,97471.38
2023-05-24T05:47:00.942Z,97474.84
2023-05-24T05:49:03.515Z,97469.59
2023-05-24T05:51:07.576Z,97466.97
2023-05-24T05:53:10.178Z,97465.28
2023-05-24T05:55:13.188Z,97466.31
2023-05-24T05:57:19.651Z,97469.84
2023-05-24T05:59:22.276Z,97473.31
2023-05-24T06:01:24.894Z,97472.47
2023-05-24T06:03:27.811Z,97473.31
2023-05-24T06:05:30.544Z,97473.41
2023-05-24T06:07:35.797Z,97475.09
2023-05-24T06:09:38.463Z,97474.19
2023-05-24T06:11:44.680Z,97483.66
2023-05-24T06:13:47.329Z,97474.84
2023-05-24T06:15:50.066Z,97475.69
2023-05-24T06:17:52.850Z,97470.44
2023-05-24T06:19:55.946Z,97467.91
2023-05-24T06:21:58.696Z,97470.69
2023-05-24T06:24:02.838Z,97474.31
2023-05-24T06:26:05.649Z,97476.03
2023-05-24T06:28:08.267Z,97477.72
2023-05-24T06:30:11.491Z,97469.94
2023-05-24T06:32:14.287Z,97467.38
2023-05-24T06:34:17.698Z,97477.34
2023-05-24T06:36:20.381Z,97471.84
2023-05-24T06:38:22.988Z,97480.72
2023-05-24T06:40:26.996Z,97478.88
2023-05-24T06:42:29.652Z,97474.31
2023-05-24T06:44:34.460Z,97475.94
2023-05-24T06:46:37.335Z,97472.28
2023-05-24T06:48:40.235Z,97479.25
2023-05-24T06:50:43.700Z,97480.88
2023-05-24T06:52:46.715Z,97481.63
2023-05-24T06:54:50.318Z,97484.19
2023-05-24T06:56:54.258Z,97486.72
2023-05-24T06:58:57.039Z,97488.44
2023-05-24T07:00:59.711Z,97489.22
2023-05-24T07:03:02.438Z,97488.25
2023-05-24T07:05:06.308Z,97494.38
2023-05-24T07:07:12.712Z,97496.06
2023-05-24T07:09:15.909Z,97496.13
2023-05-24T07:11:18.629Z,97496.91
2023-05-24T07:13:22.919Z,97490.81
2023-05-24T07:15:25.559Z,97489.94
2023-05-24T07:17:28.206Z,97502.25
2023-05-24T07:19:30.842Z,97498.69
2023-05-24T07:21:33.417Z,97498.75
2023-05-24T07:23:37.007Z,97498.75
2023-05-24T07:25:39.666Z,97502.56
2023-05-24T07:27:42.288Z,97503.34
2023-05-24T07:29:48.236Z,97503.16
2023-05-24T07:31:51.166Z,97503.06
2023-05-24T07:33:53.778Z,97508.28
2023-05-24T07:35:56.357Z,97507.34
2023-05-24T07:37:58.922Z,97509.78
2023-05-24T07:40:01.598Z,97514.13
2023-05-24T07:42:04.535Z,97514.13
2023-05-24T07:44:07.119Z,97518.44
2023-05-24T07:46:11.450Z,97514.91
2023-05-24T07:48:14.160Z,97520.16
2023-05-24T07:50:17.079Z,97524.38
2023-05-24T07:52:20.288Z,97526.16
2023-05-24T07:54:22.899Z,97527.00
2023-05-24T07:56:25.589Z,97529.97
2023-05-24T07:58:28.172Z,97530.72
2023-05-24T08:00:30.769Z,97527.25
2023-05-24T08:02:34.965Z,97534.19
2023-05-24T08:04:37.726Z,97535.91
2023-05-24T08:06:40.406Z,97536.91
2023-05-24T08:08:43.115Z,97542.25
2023-05-24T08:10:48.500Z,97543.94
2023-05-24T08:12:51.604Z,97546.91
2023-05-24T08:14:54.218Z,97536.31
2023-05-24T08:16:56.805Z,97549.00
2023-05-24T08:19:00.833Z,97552.63
2023-05-24T08:21:03.578Z,97549.81
2023-05-24T08:23:06.195Z,97548.75
2023-05-24T08:25:09.855Z,97553.91
2023-05-24T08:27:12.559Z,97560.19
2023-05-24T08:29:17.586Z,97560.19
2023-05-24T08:31:20.259Z,97562.81
2023-05-24T08:33:23.850Z,97566.44
2023-05-24T08:35:27.793Z,97569.84
2023-05-24T08:37:31.910Z,97562.03
2023-05-24T08:39:34.542Z,97561.09
2023-05-24T08:41:37.742Z,97565.50
2023-05-24T08:43:40.722Z,97570.69
2023-05-24T08:45:44.548Z,97563.66
2023-05-24T08:47:48.651Z,97565.50
2023-05-24T08:49:52.335Z,97560.25
2023-05-24T08:51:56.278Z,97565.50
2023-05-24T08:54:00.431Z,97564.66
2023-05-24T08:56:03.956Z,97571.59
2023-05-24T08:58:07.528Z,97578.50
2023-05-24T09:00:12.940Z,97573.25
2023-05-24T09:02:17.555Z,97571.44
2023-05-24T09:04:20.912Z,97569.06
2023-05-24T09:06:25.399Z,97571.53
2023-05-24T09:08:29.945Z,97573.47
2023-05-24T09:10:52.385Z,97571.34
2023-05-24T09:12:58.899Z,97562.19
2023-05-24T09:15:02.177Z,97574.16
2023-05-24T09:17:05.301Z,97569.78
2023-05-24T09:19:07.978Z,97571.25
2023-05-24T09:21:11.709Z,97577.22
2023-05-24T09:23:18.365Z,97571.97
2023-05-24T09:25:22.585Z,97580.50
2023-05-24T09:27:28.940Z,97575.00
2023-05-24T09:29:31.592Z,97565.38
2023-05-24T09:31:35.018Z,97567.38
2023-05-24T09:33:37.696Z,97572.38
2023-05-24T09:35:43.453Z,97574.84
2023-05-24T09:37:48.284Z,97568.50
2023-05-24T09:39:51.958Z,97569.97
2023-05-24T09:41:57.360Z,97568.66
2023-05-24T09:43:59.963Z,97568.31
2023-05-24T09:46:04.664Z,97563.56
2023-05-24T09:48:12.606Z,97567.16
2023-05-24T09:50:17.465Z,97563.50
2023-05-24T09:52:20.395Z,97561.72
2023-05-24T09:54:23.227Z,97563.34
2023-05-24T09:56:26.023Z,97564.13
2023-05-24T09:58:33.966Z,97559.47
2023-05-24T10:00:39.766Z,97565.41
2023-05-24T10:02:52.985Z,97563.47
2023-05-24T10:05:00.351Z,97561.66
2023-05-24T10:07:03.518Z,97557.28
2023-05-24T10:09:07.858Z,97556.50
2023-05-24T10:11:10.456Z,97551.25
2023-05-24T10:13:15.964Z,97563.38
2023-05-24T10:15:20.016Z,97560.66
2023-05-24T10:17:22.887Z,97561.56
2023-05-24T10:19:25.766Z,97559.97
2023-05-24T10:21:32.898Z,97553.88
2023-05-24T10:23:38.089Z,97557.66
2023-05-24T10:25:48.372Z,97554.03
2023-05-24T10:27:53.562Z,97561.94
2023-05-24T10:30:02.526Z,97561.94
2023-05-24T10:32:07.443Z,97564.63
2023-05-24T10:34:11.216Z,97563.88
2023-05-24T10:36:16.083Z,97567.44
2023-05-24T10:38:21.697Z,97556.25
2023-05-24T10:40:26.041Z,97561.56
2023-05-24T10:42:32.342Z,97559.00
2023-05-24T10:44:34.965Z,97559.94
2023-05-24T10:46:38.304Z,97557.31
2023-05-24T10:48:42.953Z,97564.25
2023-05-24T10:50:45.736Z,97559.94
2023-05-24T10:52:49.988Z,97561.72
2023-05-24T10:55:06.149Z,97562.75
2023-05-24T10:57:09.278Z,97568.00
2023-05-24T10:59:23.704Z,97564.81
2023-05-24T11:01:27.878Z,97564.81
2023-05-24T11:03:33.722Z,97566.72
2023-05-24T11:05:51.838Z,97562.53
2023-05-24T11:08:04.017Z,97556.44
2023-05-24T11:10:11.148Z,97557.19
2023-05-24T11:12:16.451Z,97559.81
2023-05-24T11:14:20.751Z,97555.44
2023-05-24T11:16:37.074Z,97556.22
2023-05-24T11:18:40.191Z,97564.09
2023-05-24T11:20:45.515Z,97551.84
2023-05-24T11:22:48.691Z,97557.13
2023-05-24T11:24:53.391Z,97558.84
2023-05-24T11:26:57.087Z,97551.84
2023-05-24T11:29:04.781Z,97551.09
2023-05-24T11:31:10.239Z,97558.97
2023-05-24T11:33:16.651Z,97551.16
2023-05-24T11:35:22.362Z,97549.72
2023-05-24T11:37:38.593Z,97552.34
2023-05-24T11:39:53.123Z,97558.00
2023-05-24T11:41:56.842Z,97555.38
2023-05-24T11:44:00.019Z,97555.53
2023-05-24T11:46:02.704Z,97548.59
2023-05-24T11:48:06.585Z,97554.00
2023-05-24T11:50:10.117Z,97559.19
2023-05-24T11:52:12.926Z,97554.31
2023-05-24T11:54:19.905Z,97549.84
2023-05-24T11:56:23.299Z,97547.00
2023-05-24T11:58:30.356Z,97550.44
2023-05-24T12:00:33.075Z,97548.00
2023-05-24T12:02:35.713Z,97553.94
2023-05-24T12:04:38.408Z,97551.81
2023-05-24T12:06:43.286Z,97554.94
2023-05-24T12:08:46.155Z,97551.56
2023-05-24T12:10:51.751Z,97543.50
2023-05-24T12:12:54.416Z,97550.38
2023-05-24T12:14:57.462Z,97544.97
2023-05-24T12:17:01.316Z,97547.69
2023-05-24T12:19:09.519Z,97546.59
2023-05-24T12:21:14.390Z,97554.88
2023-05-24T12:23:17.879Z,97558.03
2023-05-24T12:25:22.510Z,97555.69
2023-05-24T12:27:30.756Z,97556.81
2023-05-24T12:29:34.222Z,97553.16
2023-05-24T12:31:37.463Z,97543.44
2023-05-24T12:33:40.796Z,97554.47
2023-05-24T12:35:43.717Z,97554.16
2023-05-24T12:37:46.657Z,97546.91
2023-05-24T12:39:49.980Z,97546.44
2023-05-24T12:41:54.280Z,97543.47
2023-05-24T12:43:58.514Z,97540.28
2023-05-24T12:46:03.367Z,97550.25
2023-05-24T12:48:06.348Z,97540.53
2023-05-24T12:50:09.814Z,97541.78
2023-05-24T12:52:13.168Z,97540.53
2023-05-24T12:54:15.842Z,97539.25
2023-05-24T12:56:18.516Z,97544.00
2023-05-24T12:58:21.271Z,97541.91
2023-05-24T13:00:27.385Z,97548.53
2023-05-24T13:02:30.001Z,97550.84
2023-05-24T13:04:33.918Z,97552.28
2023-05-24T13:06:37.446Z,97553.47
2023-05-24T13:08:40.979Z,97544.59
2023-05-24T13:10:43.997Z,97537.19
2023-05-24T13:12:46.831Z,97538.50
2023-05-24T13:14:52.094Z,97531.31
2023-05-24T13:16:56.831Z,97524.75
2023-05-24T13:18:59.465Z,97519.03
2023-05-24T13:21:02.132Z,97527.09
2023-05-24T13:23:07.167Z,97529.91
2023-05-24T13:25:11.174Z,97527.03
2023-05-24T13:27:14.256Z,97520.34
2023-05-24T13:31:22.444Z,97516.97
2023-05-24T13:33:26.939Z,97508.88
2023-05-24T13:35:31.108Z,97507.25
2023-05-24T13:37:33.711Z,97505.53
2023-05-24T13:39:36.733Z,97503.06
2023-05-24T13:41:39.365Z,97497.75
2023-05-24T13:43:42.076Z,97500.66
2023-05-24T13:45:45.506Z,97492.69
2023-05-24T13:47:48.263Z,97494.06
2023-05-24T13:49:52.246Z,97496.63
2023-05-24T13:51:58.019Z,97495.38
2023-05-24T13:54:01.764Z,97483.66
2023-05-24T13:56:04.479Z,97487.09
2023-05-24T13:58:07.194Z,97494.91
2023-05-24T14:00:10.861Z,97477.03
2023-05-24T14:02:13.623Z,97477.75
2023-05-24T14:04:16.866Z,97483.13
2023-05-24T14:06:21.888Z,97471.13
2023-05-24T14:08:24.541Z,97475.97
2023-05-24T14:10:27.416Z,97478.66
2023-05-24T14:12:31.635Z,97477.34
2023-05-24T14:16:40.241Z,97474.66
2023-05-24T14:18:43.074Z,97477.47
2023-05-24T14:20:45.710Z,97474.72
2023-05-24T14:22:49.724Z,97466.38
2023-05-24T14:24:52.532Z,97467.13
2023-05-24T14:26:55.205Z,97468.06
2023-05-24T14:28:57.846Z,97464.09
2023-05-24T14:31:00.407Z,97464.34
2023-05-24T14:33:03.048Z,97465.66
2023-05-24T14:35:06.655Z,97463.00
2023-05-24T14:37:09.301Z,97467.59
2023-05-24T14:39:13.344Z,97466.72
2023-05-24T14:41:16.291Z,97465.81
2023-05-24T14:43:19.015Z,97468.34
2023-05-24T14:45:21.599Z,97463.94
2023-05-24T14:47:24.333Z,97463.81
2023-05-24T14:49:26.952Z,97467.69
2023-05-24T14:51:29.611Z,97461.00
2023-05-24T14:53:32.246Z,97463.84
2023-05-24T14:55:36.376Z,97453.31
2023-05-24T14:57:38.983Z,97467.16
2023-05-24T14:59:41.571Z,97460.13
2023-05-24T15:01:44.192Z,97461.97
2023-05-24T15:03:46.922Z,97456.66
2023-05-24T15:05:49.634Z,97466.06
2023-05-24T15:07:52.251Z,97463.63
2023-05-24T15:09:56.317Z,97459.22
2023-05-24T15:12:01.978Z,97460.75
2023-05-24T15:14:04.615Z,97462.69
2023-05-24T15:16:07.293Z,97462.53
2023-05-24T15:18:10.057Z,97457.06
2023-05-24T15:20:13.049Z,97455.69
2023-05-24T15:22:15.680Z,97452.59
2023-05-24T15:24:18.378Z,97457.47
2023-05-24T15:26:21.153Z,97457.72
2023-05-24T15:28:26.604Z,97468.91
2023-05-24T15:30:29.701Z,97462.47
2023-05-24T15:32:32.303Z,97457.28
2023-05-24T15:34:34.919Z,97458.59
2023-05-24T15:36:37.812Z,97454.84
2023-05-24T15:38:40.705Z,97456.38
2023-05-24T15:40:43.519Z,97459.91
2023-05-24T15:42:46.403Z,97452.66
2023-05-24T15:44:50.411Z,97454.25
2023-05-24T15:46:53.119Z,97448.81
2023-05-24T15:48:55.772Z,97443.38
2023-05-24T15:51:57.446Z,97446.00
2023-05-24T15:53:21.780Z,97445.53
2023-05-24T15:55:24.638Z,97446.13
2023-05-24T15:57:27.229Z,97444.41
2023-05-24T15:59:29.912Z,97446.00
2023-05-24T16:01:33.965Z,97443.59
2023-05-24T16:03:38.408Z,97451.97
2023-05-24T16:05:41.310Z,97448.09
2023-05-24T16:07:43.942Z,97442.34
2023-05-24T16:09:47.248Z,97437.19
2023-05-24T16:11:49.913Z,97439.59
2023-05-24T16:13:53.529Z,97440.69
2023-05-24T16:15:56.282Z,97437.53
2023-05-24T16:18:00.394Z,97434.53
2023-05-24T16:20:03.121Z,97429.97
2023-05-24T16:22:07.667Z,97431.63
2023-05-24T16:24:10.244Z,97432.03
2023-05-24T16:26:12.896Z,97426.34
2023-05-24T16:28:15.599Z,97425.88
2023-05-24T16:30:18.266Z,97429.38
2023-05-24T16:32:20.903Z,97431.41
2023-05-24T16:34:25.740Z,97428.50
2023-05-24T16:36:28.355Z,97423.84
2023-05-24T16:38:31.043Z,97425.25
2023-05-24T16:40:33.660Z,97429.00
2023-05-24T16:42:36.260Z,97423.91
2023-05-24T16:44:38.902Z,97429.13
2023-05-24T16:46:41.626Z,97428.13
2023-05-24T16:48:44.307Z,97425.59
2023-05-24T16:50:48.359Z,97420.16
2023-05-24T16:52:51.493Z,97421.13
2023-05-24T16:54:54.110Z,97427.28
2023-05-24T16:56:56.747Z,97419.34
2023-05-24T16:58:59.354Z,97422.94
2023-05-24T17:01:01.969Z,97421.63
2023-05-24T17:03:04.800Z,97423.16
2023-05-24T17:05:08.207Z,97424.50
2023-05-24T17:07:12.198Z,97432.44
2023-05-24T17:09:14.826Z,97425.69
2023-05-24T17:11:19.730Z,97423.16
2023-05-24T17:13:22.322Z,97418.44
2023-05-24T17:15:24.905Z,97424.34
2023-05-24T17:17:27.580Z,97417.56
2023-05-24T17:19:30.288Z,97416.31
2023-05-24T17:21:32.939Z,97417.50
2023-05-24T17:23:37.604Z,97415.91
2023-05-24T17:25:40.209Z,97420.97
2023-05-24T17:27:42.767Z,97416.88
2023-05-24T17:29:45.423Z,97423.22
2023-05-24T17:31:48.138Z,97427.78
2023-05-24T17:33:50.774Z,97426.41
2023-05-24T17:35:56.235Z,97426.66
2023-05-24T17:37:58.919Z,97432.22
2023-05-24T17:40:02.885Z,97428.63
2023-05-24T17:42:06.874Z,97423.03
2023-05-24T17:44:09.475Z,97436.69
2023-05-24T17:46:13.502Z,97430.81
2023-05-24T17:48:16.209Z,97426.16
2023-05-24T17:50:18.801Z,97429.53
2023-05-24T17:52:21.435Z,97423.50
2023-05-24T17:54:24.042Z,97434.31
2023-05-24T17:56:29.058Z,97434.31
2023-05-24T17:58:35.551Z,97428.28
2023-05-24T18:00:38.852Z,97439.16
2023-05-24T18:02:41.499Z,97437.91
2023-05-24T18:04:44.095Z,97443.41
2023-05-24T18:06:46.745Z,97442.44
2023-05-24T18:08:49.995Z,97444.88
2023-05-24T18:10:52.703Z,97439.28
2023-05-24T18:12:56.661Z,97448.28
2023-05-24T18:14:59.292Z,97443.09
2023-05-24T18:17:01.942Z,97448.91
2023-05-24T18:19:04.548Z,97453.44
2023-05-24T18:21:07.957Z,97450.47
2023-05-24T18:23:10.649Z,97452.69
2023-05-24T18:25:13.244Z,97459.97
2023-05-24T18:27:15.855Z,97456.81
2023-05-24T18:29:19.938Z,97454.47
2023-05-24T18:31:22.580Z,97465.44
2023-05-24T18:33:25.375Z,97469.22
2023-05-24T18:35:28.807Z,97463.19
2023-05-24T18:37:31.555Z,97465.41
2023-05-24T18:39:34.165Z,97462.34
2023-05-24T18:41:36.749Z,97465.38
2023-05-24T18:43:39.646Z,97470.38
2023-05-24T18:45:43.846Z,97467.38
2023-05-24T18:47:46.732Z,97475.81
2023-05-24T18:49:49.357Z,97478.09
2023-05-24T18:51:52.033Z,97473.50
2023-05-24T18:53:54.641Z,97482.56
2023-05-24T18:55:57.286Z,97483.22
2023-05-24T18:57:59.916Z,97485.50
2023-05-24T19:00:02.556Z,97483.34
2023-05-24T19:02:07.363Z,97486.28
2023-05-24T19:04:12.949Z,97481.34
2023-05-24T19:06:15.585Z,97481.72
2023-05-24T19:08:18.449Z,97483.78
2023-05-24T19:10:21.169Z,97492.81
2023-05-24T19:12:23.806Z,97492.25
2023-05-24T19:14:26.715Z,97494.31
2023-05-24T19:16:29.402Z,97507.47
2023-05-24T19:18:33.473Z,97498.81
2023-05-24T19:20:36.262Z,97503.41
2023-05-24T19:22:38.935Z,97501.31
2023-05-24T19:24:41.625Z,97501.78
2023-05-24T19:26:44.220Z,97503.66
2023-05-24T19:28:51.581Z,97505.53
2023-05-24T19:30:54.225Z,97503.84
2023-05-24T19:32:56.918Z,97500.34
2023-05-24T19:35:01.043Z,97500.44
2023-05-24T19:37:03.938Z,97508.28
2023-05-24T19:39:06.993Z,97513.06
2023-05-24T19:41:09.663Z,97515.78
2023-05-24T19:43:12.249Z,97511.53
2023-05-24T19:45:14.905Z,97512.59
2023-05-24T19:47:17.489Z,97512.69
2023-05-24T19:49:20.138Z,97508.34
2023-05-24T19:51:24.154Z,97508.34
2023-05-24T19:53:28.683Z,97515.41
2023-05-24T19:55:31.303Z,97515.47
2023-05-24T19:57:33.956Z,97517.25
2023-05-24T19:59:36.575Z,97526.06
2023-05-24T20:01:39.274Z,97519.13
2023-05-24T20:03:43.762Z,97527.88
2023-05-24T20:05:46.422Z,97528.88
2023-05-24T20:07:50.841Z,97528.03
2023-05-24T20:09:53.674Z,97527.19
2023-05-24T20:11:56.269Z,97530.66
2023-05-24T20:13:58.967Z,97526.34
2023-05-24T20:16:01.652Z,97530.75
2023-05-24T20:18:04.625Z,97533.38
2023-05-24T20:20:08.480Z,97526.53
2023-05-24T20:22:12.458Z,97524.72
2023-05-24T20:24:16.603Z,97525.66
2023-05-24T20:26:19.216Z,97526.63
2023-05-24T20:28:30.009Z,97525.84
2023-05-24T20:30:34.525Z,97528.56
2023-05-24T20:32:37.202Z,97537.38
2023-05-24T20:34:39.903Z,97533.06
2023-05-24T20:36:43.951Z,97529.56
2023-05-24T20:38:47.593Z,97528.72
2023-05-24T20:40:51.521Z,97530.44
2023-05-24T20:42:55.352Z,97538.41
2023-05-24T20:44:58.019Z,97533.25
2023-05-24T20:47:00.752Z,97533.31
2023-05-24T20:49:03.369Z,97534.31
2023-05-24T20:51:07.166Z,97533.44
2023-05-24T20:53:09.756Z,97535.41
2023-05-24T20:55:12.502Z,97530.31
2023-05-24T20:57:16.448Z,97531.25
2023-05-24T20:59:19.077Z,97533.22
2023-05-24T21:01:21.923Z,97536.84
2023-05-24T21:03:24.716Z,97536.06
2023-05-24T21:05:27.347Z,97529.13
2023-05-24T21:07:29.963Z,97531.09
2023-05-24T21:09:32.627Z,97528.47
2023-05-24T21:11:35.424Z,97525.91
2023-05-24T21:13:41.076Z,97529.53
2023-05-24T21:15:45.515Z,97534.13
2023-05-24T21:17:48.461Z,97528.94
2023-05-24T21:19:51.080Z,97531.66
2023-05-24T21:21:53.714Z,97523.88
2023-05-24T21:23:56.698Z,97530.91
2023-05-24T21:25:59.333Z,97535.38
2023-05-24T21:28:01.956Z,97524.97
2023-05-24T21:30:06.957Z,97531.25
2023-05-24T21:32:09.518Z,97533.94
2023-05-24T21:34:14.764Z,97534.88
2023-05-24T21:36:18.440Z,97534.09
2023-05-24T21:38:21.051Z,97533.28
2023-05-24T21:40:23.711Z,97538.59
2023-05-24T21:42:26.303Z,97534.28
2023-05-24T21:44:28.939Z,97534.38
2023-05-24T21:46:33.626Z,97538.94
2023-05-24T21:48:36.300Z,97537.22
2023-05-24T21:50:38.926Z,97540.00
2023-05-24T21:52:41.559Z,97541.88
2023-05-24T21:54:44.149Z,97541.19
2023-05-24T21:56:46.808Z,97542.13
2023-05-24T21:58:49.471Z,97542.22
2023-05-24T22:00:52.130Z,97542.22
2023-05-24T22:02:56.171Z,97551.84
2023-05-24T22:04:58.978Z,97550.09
2023-05-24T22:07:01.687Z,97564.16
2023-05-24T22:09:04.420Z,97560.59
2023-05-24T22:11:07.261Z,97566.78
2023-05-24T22:13:09.917Z,97559.81
2023-05-24T22:15:12.818Z,97551.16
2023-05-24T22:17:15.446Z,97553.03
2023-05-24T22:19:28.502Z,97551.34
2023-05-24T22:21:42.884Z,97547.09
2023-05-24T22:23:45.954Z,97554.22
2023-05-24T22:25:48.579Z,97549.97
2023-05-24T22:27:53.355Z,97553.63
2023-05-24T22:29:56.059Z,97553.66
2023-05-24T22:31:58.659Z,97552.94
2023-05-24T22:34:02.496Z,97553.84
2023-05-24T22:36:09.163Z,97560.94
2023-05-24T22:38:11.845Z,97563.66
2023-05-24T22:40:14.723Z,97560.94
2023-05-24T22:42:17.343Z,97557.56
2023-05-24T22:44:19.989Z,97554.09
2023-05-24T22:46:23.092Z,97551.53
2023-05-24T22:48:26.657Z,97559.41
2023-05-24T22:50:29.276Z,97556.00
2023-05-24T22:52:33.849Z,97557.78
2023-05-24T22:54:36.540Z,97557.00
2023-05-24T22:56:39.196Z,97557.09
2023-05-24T22:58:41.804Z,97557.16
2023-05-24T23:00:44.400Z,97552.88
2023-05-24T23:02:47.200Z,97549.53
2023-05-24T23:04:49.891Z,97555.69
2023-05-24T23:06:53.540Z,97554.09
2023-05-24T23:08:57.609Z,97542.81
2023-05-24T23:11:00.530Z,97550.78
2023-05-24T23:13:04.133Z,97546.53
2023-05-24T23:15:07.448Z,97550.97
2023-05-24T23:17:13.376Z,97550.13
2023-05-24T23:19:18.555Z,97543.16
2023-05-24T23:21:22.379Z,97550.22
2023-05-24T23:23:25.771Z,97543.25
2023-05-24T23:25:29.863Z,97544.19
2023-05-24T23:27:32.462Z,97539.06
2023-05-24T23:29:35.113Z,97540.94
2023-05-24T23:31:37.960Z,97533.97
2023-05-24T23:33:40.718Z,97538.41
2023-05-24T23:35:43.477Z,97535.78
2023-05-24T23:37:46.302Z,97540.25
2023-05-24T23:39:48.925Z,97537.63
2023-05-24T23:41:52.972Z,97531.53
2023-05-24T23:43:55.591Z,97534.38
2023-05-24T23:45:58.230Z,97537.91
2023-05-24T23:48:01.271Z,97531.91
2023-05-24T23:50:04.199Z,97530.22
2023-05-24T23:52:07.837Z,97525.81
2023-05-24T23:54:11.234Z,97526.81
2023-05-24T23:56:13.847Z,97526.81
2023-05-24T23:58:17.869Z,97522.50
